Terminal Aerodrome Forecast
Issued by NWS South Bend, IN

Home | Current Version | Previous Version | Text Only | Print | Product List | Glossary Off
Versions: 1 2 3 4 5 6 7 8 9 10 11 12

000
FTUS43 KIWX 301100
TAFSBN
TAF
KSBN 301120Z 3012/0112 35008KT P6SM BKN070
     FM301500 35013G20KT P6SM BKN035
     FM010000 32005KT P6SM SCT050=

USA.gov is the U.S. government's official web portal to all federal, state and local government web resources and services.